デンパサール の空港の天気 - METARとTAF

デンパサール国際空港 ( WADD / DPS ) - インドネシア バリ島デンパサール
飛行場実況気象(Metar)
観測時間05/17 19:30 WITA (05/17 11:30 UTC)
風向・風速東南東 4m/s
視程10km以上
天気現象
少しの雲 雲底高度 520m
気温27℃
湿度89%
気圧1009hPa
METARWADD 171130Z 11008KT 9999 FEW017 27/25 Q1009 NOSIG
過去の天気等 Google飛行場航空写真 Wunderground天気予報

過去48時間のMETAR

飛行場予報(TAF)
発表時間: 5/17 19:00 WITA (5/17 11:00 UTC)
予報対象時間: 17日20時 WITA ~ 18日20時 WITA
風向・風速東南東 6m/s
視程10km以上
全天の4割程度の雲 雲底高度 490m
TAF WADD 171100Z 1712/1812 11012KT 9999 SCT016